sensor_id;sensor_type;location;lat;lon;timestamp;pressure;altitude;pressure_sealevel;temperature;humidity
10881;BME280;5493;48.884;8.338;2022-12-10T00:01:41;99092.84;;;4.09;100.00
10881;BME280;5493;48.884;8.338;2022-12-10T00:04:07;99094.09;;;4.00;100.00
10881;BME280;5493;48.884;8.338;2022-12-10T00:06:35;99098.00;;;3.97;100.00
10881;BME280;5493;48.884;8.338;2022-12-10T00:09:06;99099.44;;;3.93;100.00
10881;BME280;5493;48.884;8.338;2022-12-10T00:11:33;99091.84;;;3.97;100.00
10881;BME280;5493;48.884;8.338;2022-12-10T00:14:00;99096.16;;;3.78;100.00
10881;BME280;5493;48.884;8.338;2022-12-10T00:16:28;99097.59;;;3.94;100.00
10881;BME280;5493;48.884;8.338;2022-12-10T00:18:56;99103.13;;;3.86;100.00
10881;BME280;5493;48.884;8.338;2022-12-10T00:21:26;99106.63;;;3.86;100.00
10881;BME280;5493;48.884;8.338;2022-12-10T00:23:53;99108.47;;;3.79;100.00
10881;BME280;5493;48.884;8.338;2022-12-10T00:26:23;99101.47;;;3.98;100.00
10881;BME280;5493;48.884;8.338;2022-12-10T00:28:50;99102.91;;;3.87;100.00
10881;BME280;5493;48.884;8.338;2022-12-10T00:31:19;99102.50;;;4.04;100.00
10881;BME280;5493;48.884;8.338;2022-12-10T00:33:46;99094.50;;;3.84;100.00
10881;BME280;5493;48.884;8.338;2022-12-10T00:36:15;99097.97;;;3.84;100.00
10881;BME280;5493;48.884;8.338;2022-12-10T00:38:42;99099.63;;;3.72;100.00
10881;BME280;5493;48.884;8.338;2022-12-10T00:41:10;99093.47;;;3.78;100.00
10881;BME280;5493;48.884;8.338;2022-12-10T00:43:38;99097.16;;;3.97;100.00
10881;BME280;5493;48.884;8.338;2022-12-10T00:46:05;99093.91;;;3.75;100.00
10881;BME280;5493;48.884;8.338;2022-12-10T00:48:32;99097.38;;;3.95;100.00
10881;BME280;5493;48.884;8.338;2022-12-10T00:51:01;99102.09;;;3.93;100.00
10881;BME280;5493;48.884;8.338;2022-12-10T00:53:29;99100.03;;;3.89;100.00
10881;BME280;5493;48.884;8.338;2022-12-10T00:55:56;99103.50;;;3.76;100.00
10881;BME280;5493;48.884;8.338;2022-12-10T00:58:26;99109.06;;;4.01;100.00
10881;BME280;5493;48.884;8.338;2022-12-10T01:00:54;99111.94;;;3.93;100.00
10881;BME280;5493;48.884;8.338;2022-12-10T01:03:21;99113.16;;;4.04;100.00
10881;BME280;5493;48.884;8.338;2022-12-10T01:05:47;99114.19;;;4.03;100.00
10881;BME280;5493;48.884;8.338;2022-12-10T01:08:14;99121.78;;;3.99;100.00
10881;BME280;5493;48.884;8.338;2022-12-10T01:10:40;99121.19;;;3.90;100.00
10881;BME280;5493;48.884;8.338;2022-12-10T01:13:07;99126.09;;;3.93;100.00
10881;BME280;5493;48.884;8.338;2022-12-10T01:15:36;99128.13;;;3.98;100.00
10881;BME280;5493;48.884;8.338;2022-12-10T01:18:05;99127.72;;;3.88;100.00
10881;BME280;5493;48.884;8.338;2022-12-10T01:20:34;99127.94;;;3.86;100.00
10881;BME280;5493;48.884;8.338;2022-12-10T01:23:01;99133.03;;;3.88;100.00
10881;BME280;5493;48.884;8.338;2022-12-10T01:25:27;99137.97;;;3.91;100.00
10881;BME280;5493;48.884;8.338;2022-12-10T01:27:54;99142.69;;;3.95;100.00
10881;BME280;5493;48.884;8.338;2022-12-10T01:30:20;99136.53;;;3.88;100.00
10881;BME280;5493;48.884;8.338;2022-12-10T01:32:47;99141.03;;;3.94;100.00
10881;BME280;5493;48.884;8.338;2022-12-10T01:35:15;99143.72;;;3.88;100.00
10881;BME280;5493;48.884;8.338;2022-12-10T01:37:42;99133.88;;;3.95;100.00
10881;BME280;5493;48.884;8.338;2022-12-10T01:40:09;99134.06;;;3.74;100.00
10881;BME280;5493;48.884;8.338;2022-12-10T01:42:36;99128.50;;;3.62;100.00
10881;BME280;5493;48.884;8.338;2022-12-10T01:45:07;99131.19;;;3.62;100.00
10881;BME280;5493;48.884;8.338;2022-12-10T01:47:34;99137.56;;;3.68;100.00
10881;BME280;5493;48.884;8.338;2022-12-10T01:50:02;99135.13;;;3.79;100.00
10881;BME280;5493;48.884;8.338;2022-12-10T01:52:30;99140.44;;;3.79;100.00
10881;BME280;5493;48.884;8.338;2022-12-10T01:54:57;99139.19;;;3.62;100.00
10881;BME280;5493;48.884;8.338;2022-12-10T01:57:26;99141.66;;;3.57;100.00
10881;BME280;5493;48.884;8.338;2022-12-10T01:59:55;99148.81;;;3.57;100.00
10881;BME280;5493;48.884;8.338;2022-12-10T02:02:33;99144.31;;;3.57;100.00
10881;BME280;5493;48.884;8.338;2022-12-10T02:05:08;99147.56;;;3.53;100.00
10881;BME280;5493;48.884;8.338;2022-12-10T02:07:50;99143.66;;;3.55;100.00
10881;BME280;5493;48.884;8.338;2022-12-10T02:10:23;99136.72;;;3.54;100.00
10881;BME280;5493;48.884;8.338;2022-12-10T02:12:54;99141.41;;;3.52;100.00
10881;BME280;5493;48.884;8.338;2022-12-10T02:15:26;99141.22;;;3.54;100.00
10881;BME280;5493;48.884;8.338;2022-12-10T02:17:55;99135.31;;;3.78;100.00
10881;BME280;5493;48.884;8.338;2022-12-10T02:20:26;99127.03;;;3.33;100.00
10881;BME280;5493;48.884;8.338;2022-12-10T02:22:58;99125.19;;;3.34;100.00
10881;BME280;5493;48.884;8.338;2022-12-10T02:25:36;99127.28;;;3.52;100.00
10881;BME280;5493;48.884;8.338;2022-12-10T02:28:12;99122.56;;;3.47;100.00
10881;BME280;5493;48.884;8.338;2022-12-10T02:30:42;99124.81;;;3.50;100.00
10881;BME280;5493;48.884;8.338;2022-12-10T02:33:10;99118.88;;;3.48;100.00
10881;BME280;5493;48.884;8.338;2022-12-10T02:35:40;99110.50;;;3.71;100.00
10881;BME280;5493;48.884;8.338;2022-12-10T02:38:11;99111.72;;;3.62;100.00
10881;BME280;5493;48.884;8.338;2022-12-10T02:40:42;99117.25;;;3.54;100.00
10881;BME280;5493;48.884;8.338;2022-12-10T02:43:12;99117.84;;;3.56;100.00
10881;BME280;5493;48.884;8.338;2022-12-10T02:45:40;99105.16;;;3.58;100.00
10881;BME280;5493;48.884;8.338;2022-12-10T02:48:09;99110.88;;;3.55;100.00
10881;BME280;5493;48.884;8.338;2022-12-10T02:50:36;99111.50;;;3.63;100.00
10881;BME280;5493;48.884;8.338;2022-12-10T02:53:03;99121.94;;;3.52;100.00
10881;BME280;5493;48.884;8.338;2022-12-10T02:55:38;99116.00;;;3.50;100.00
10881;BME280;5493;48.884;8.338;2022-12-10T02:58:11;99127.31;;;3.71;100.00
10881;BME280;5493;48.884;8.338;2022-12-10T03:00:49;99125.06;;;3.68;100.00
10881;BME280;5493;48.884;8.338;2022-12-10T03:03:28;99125.00;;;3.42;100.00
10881;BME280;5493;48.884;8.338;2022-12-10T03:06:03;99135.06;;;3.46;100.00
10881;BME280;5493;48.884;8.338;2022-12-10T03:08:34;99134.84;;;3.55;100.00
10881;BME280;5493;48.884;8.338;2022-12-10T03:11:09;99141.22;;;3.60;100.00
10881;BME280;5493;48.884;8.338;2022-12-10T03:13:41;99134.25;;;3.66;100.00
10881;BME280;5493;48.884;8.338;2022-12-10T03:16:11;99138.78;;;3.65;100.00
10881;BME280;5493;48.884;8.338;2022-12-10T03:18:39;99138.38;;;3.62;100.00
10881;BME280;5493;48.884;8.338;2022-12-10T03:21:06;99136.09;;;3.52;100.00
10881;BME280;5493;48.884;8.338;2022-12-10T03:23:36;99137.34;;;3.63;100.00
10881;BME280;5493;48.884;8.338;2022-12-10T03:26:05;99140.16;;;3.41;100.00
10881;BME280;5493;48.884;8.338;2022-12-10T03:28:34;99134.59;;;3.36;100.00
10881;BME280;5493;48.884;8.338;2022-12-10T03:31:03;99149.56;;;3.31;100.00
10881;BME280;5493;48.884;8.338;2022-12-10T03:33:32;99145.25;;;3.36;100.00
10881;BME280;5493;48.884;8.338;2022-12-10T03:35:59;99149.59;;;3.37;100.00
10881;BME280;5493;48.884;8.338;2022-12-10T03:38:26;99152.03;;;3.32;100.00
10881;BME280;5493;48.884;8.338;2022-12-10T03:40:53;99158.41;;;3.51;100.00
10881;BME280;5493;48.884;8.338;2022-12-10T03:43:21;99169.28;;;3.43;100.00
10881;BME280;5493;48.884;8.338;2022-12-10T03:45:47;99158.81;;;3.48;100.00
10881;BME280;5493;48.884;8.338;2022-12-10T03:48:14;99159.03;;;3.40;100.00
10881;BME280;5493;48.884;8.338;2022-12-10T03:50:42;99150.03;;;3.54;100.00
10881;BME280;5493;48.884;8.338;2022-12-10T03:53:08;99153.53;;;3.61;100.00
10881;BME280;5493;48.884;8.338;2022-12-10T03:55:35;99157.81;;;3.42;100.00
10881;BME280;5493;48.884;8.338;2022-12-10T03:58:01;99161.91;;;3.52;100.00
10881;BME280;5493;48.884;8.338;2022-12-10T04:00:28;99154.34;;;3.55;100.00
10881;BME280;5493;48.884;8.338;2022-12-10T04:02:55;99164.63;;;3.65;100.00
10881;BME280;5493;48.884;8.338;2022-12-10T04:05:21;99160.06;;;3.59;100.00
10881;BME280;5493;48.884;8.338;2022-12-10T04:07:49;99169.72;;;3.73;100.00
10881;BME280;5493;48.884;8.338;2022-12-10T04:10:16;99163.78;;;3.64;100.00
10881;BME280;5493;48.884;8.338;2022-12-10T04:12:42;99166.28;;;3.79;100.00
10881;BME280;5493;48.884;8.338;2022-12-10T04:15:29;99154.78;;;3.72;100.00
10881;BME280;5493;48.884;8.338;2022-12-10T04:18:13;99160.06;;;3.59;100.00
10881;BME280;5493;48.884;8.338;2022-12-10T04:20:39;99160.25;;;3.44;100.00
10881;BME280;5493;48.884;8.338;2022-12-10T04:23:25;99162.38;;;3.81;100.00
10881;BME280;5493;48.884;8.338;2022-12-10T04:26:09;99165.81;;;3.62;100.00
10881;BME280;5493;48.884;8.338;2022-12-10T04:28:53;99158.03;;;3.54;100.00
10881;BME280;5493;48.884;8.338;2022-12-10T04:31:19;99164.38;;;3.60;100.00
10881;BME280;5493;48.884;8.338;2022-12-10T04:33:46;99159.88;;;3.47;100.00
10881;BME280;5493;48.884;8.338;2022-12-10T04:36:12;99158.63;;;3.50;100.00
10881;BME280;5493;48.884;8.338;2022-12-10T04:38:40;99163.16;;;3.56;100.00
10881;BME280;5493;48.884;8.338;2022-12-10T04:41:07;99159.06;;;3.53;100.00
10881;BME280;5493;48.884;8.338;2022-12-10T04:43:40;99155.75;;;3.51;100.00
10881;BME280;5493;48.884;8.338;2022-12-10T04:46:07;99160.06;;;3.52;100.00
10881;BME280;5493;48.884;8.338;2022-12-10T04:48:34;99151.41;;;3.37;100.00
10881;BME280;5493;48.884;8.338;2022-12-10T04:51:00;99157.97;;;3.34;100.00
10881;BME280;5493;48.884;8.338;2022-12-10T04:53:27;99159.03;;;3.40;100.00
10881;BME280;5493;48.884;8.338;2022-12-10T04:55:55;99153.66;;;3.27;100.00
10881;BME280;5493;48.884;8.338;2022-12-10T04:58:22;99156.72;;;3.30;100.00
10881;BME280;5493;48.884;8.338;2022-12-10T05:00:48;99154.72;;;3.39;100.00
10881;BME280;5493;48.884;8.338;2022-12-10T05:03:15;99158.38;;;3.31;100.00
10881;BME280;5493;48.884;8.338;2022-12-10T05:05:41;99166.13;;;3.20;100.00
10881;BME280;5493;48.884;8.338;2022-12-10T05:08:08;99176.38;;;3.23;100.00
10881;BME280;5493;48.884;8.338;2022-12-10T05:10:35;99177.78;;;3.19;100.00
10881;BME280;5493;48.884;8.338;2022-12-10T05:13:03;99177.78;;;3.12;100.00
10881;BME280;5493;48.884;8.338;2022-12-10T05:15:29;99177.63;;;3.33;100.00
10881;BME280;5493;48.884;8.338;2022-12-10T05:17:56;99177.22;;;3.30;100.00
10881;BME280;5493;48.884;8.338;2022-12-10T05:20:22;99185.00;;;3.25;100.00
10881;BME280;5493;48.884;8.338;2022-12-10T05:22:49;99196.66;;;3.24;100.00
10881;BME280;5493;48.884;8.338;2022-12-10T05:25:33;99189.94;;;3.28;100.00
10881;BME280;5493;48.884;8.338;2022-12-10T05:28:19;99184.81;;;3.33;100.00
10881;BME280;5493;48.884;8.338;2022-12-10T05:30:45;99185.47;;;3.55;100.00
10881;BME280;5493;48.884;8.338;2022-12-10T05:33:12;99180.34;;;3.40;100.00
10881;BME280;5493;48.884;8.338;2022-12-10T05:35:39;99198.38;;;3.44;100.00
10881;BME280;5493;48.884;8.338;2022-12-10T05:38:05;99206.19;;;3.53;100.00
10881;BME280;5493;48.884;8.338;2022-12-10T05:40:34;99194.44;;;3.34;100.00
10881;BME280;5493;48.884;8.338;2022-12-10T05:43:00;99195.44;;;3.26;100.00
10881;BME280;5493;48.884;8.338;2022-12-10T05:45:28;99191.50;;;3.09;100.00
10881;BME280;5493;48.884;8.338;2022-12-10T05:47:57;99196.53;;;2.97;100.00
10881;BME280;5493;48.884;8.338;2022-12-10T05:50:24;99205.03;;;3.14;100.00
10881;BME280;5493;48.884;8.338;2022-12-10T05:52:51;99201.13;;;3.10;100.00
10881;BME280;5493;48.884;8.338;2022-12-10T05:55:17;99200.31;;;3.16;100.00
10881;BME280;5493;48.884;8.338;2022-12-10T05:57:44;99201.16;;;3.17;100.00
10881;BME280;5493;48.884;8.338;2022-12-10T06:00:11;99205.47;;;3.18;100.00
10881;BME280;5493;48.884;8.338;2022-12-10T06:02:39;99205.22;;;3.13;100.00
10881;BME280;5493;48.884;8.338;2022-12-10T06:05:07;99203.16;;;3.15;100.00
10881;BME280;5493;48.884;8.338;2022-12-10T06:07:33;99201.94;;;3.11;100.00
10881;BME280;5493;48.884;8.338;2022-12-10T06:10:00;99207.19;;;2.97;100.00
10881;BME280;5493;48.884;8.338;2022-12-10T06:12:26;99219.53;;;3.12;100.00
10881;BME280;5493;48.884;8.338;2022-12-10T06:14:53;99222.59;;;3.09;100.00
10881;BME280;5493;48.884;8.338;2022-12-10T06:17:19;99232.84;;;3.05;100.00
10881;BME280;5493;48.884;8.338;2022-12-10T06:19:47;99231.84;;;3.13;100.00
10881;BME280;5493;48.884;8.338;2022-12-10T06:22:14;99236.16;;;2.79;100.00
10881;BME280;5493;48.884;8.338;2022-12-10T06:24:40;99236.63;;;2.89;100.00
10881;BME280;5493;48.884;8.338;2022-12-10T06:27:07;99246.31;;;2.97;100.00
10881;BME280;5493;48.884;8.338;2022-12-10T06:29:33;99239.94;;;3.32;100.00
10881;BME280;5493;48.884;8.338;2022-12-10T06:32:00;99253.19;;;3.19;100.00
10881;BME280;5493;48.884;8.338;2022-12-10T06:34:26;99260.91;;;3.08;100.00
10881;BME280;5493;48.884;8.338;2022-12-10T06:36:54;99264.31;;;2.95;100.00
10881;BME280;5493;48.884;8.338;2022-12-10T06:39:21;99261.50;;;3.03;100.00
10881;BME280;5493;48.884;8.338;2022-12-10T06:41:48;99271.00;;;3.19;100.00
10881;BME280;5493;48.884;8.338;2022-12-10T06:44:14;99278.75;;;3.07;100.00
10881;BME280;5493;48.884;8.338;2022-12-10T06:46:41;99286.81;;;3.27;100.00
10881;BME280;5493;48.884;8.338;2022-12-10T06:49:08;99277.41;;;3.31;100.00
10881;BME280;5493;48.884;8.338;2022-12-10T06:51:34;99286.19;;;3.18;100.00
10881;BME280;5493;48.884;8.338;2022-12-10T06:54:02;99287.47;;;3.29;100.00
10881;BME280;5493;48.884;8.338;2022-12-10T06:56:29;99287.63;;;3.21;100.00
10881;BME280;5493;48.884;8.338;2022-12-10T06:58:56;99288.84;;;3.18;100.00
10881;BME280;5493;48.884;8.338;2022-12-10T07:01:24;99285.72;;;3.15;100.00
10881;BME280;5493;48.884;8.338;2022-12-10T07:03:53;99284.59;;;3.30;100.00
10881;BME280;5493;48.884;8.338;2022-12-10T07:06:21;99291.09;;;3.21;100.00
10881;BME280;5493;48.884;8.338;2022-12-10T07:08:49;99289.00;;;3.10;100.00
10881;BME280;5493;48.884;8.338;2022-12-10T07:11:18;99286.72;;;3.07;100.00
10881;BME280;5493;48.884;8.338;2022-12-10T07:13:46;99282.88;;;3.16;100.00
10881;BME280;5493;48.884;8.338;2022-12-10T07:16:14;99286.34;;;3.10;100.00
10881;BME280;5493;48.884;8.338;2022-12-10T07:18:41;99288.34;;;3.08;100.00
10881;BME280;5493;48.884;8.338;2022-12-10T07:24:29;99303.69;;;3.40;100.00
10881;BME280;5493;48.884;8.338;2022-12-10T07:26:57;99312.50;;;3.41;100.00
10881;BME280;5493;48.884;8.338;2022-12-10T07:29:24;99312.75;;;3.12;100.00
10881;BME280;5493;48.884;8.338;2022-12-10T07:31:51;99320.00;;;3.24;100.00
10881;BME280;5493;48.884;8.338;2022-12-10T07:34:19;99326.31;;;3.17;100.00
10881;BME280;5493;48.884;8.338;2022-12-10T07:36:46;99321.00;;;3.23;100.00
10881;BME280;5493;48.884;8.338;2022-12-10T07:39:13;99323.25;;;3.20;100.00
10881;BME280;5493;48.884;8.338;2022-12-10T07:41:42;99327.75;;;3.19;100.00
10881;BME280;5493;48.884;8.338;2022-12-10T07:44:12;99327.06;;;3.45;100.00
10881;BME280;5493;48.884;8.338;2022-12-10T07:46:39;99329.31;;;3.41;100.00
10881;BME280;5493;48.884;8.338;2022-12-10T07:49:06;99332.06;;;3.20;100.00
10881;BME280;5493;48.884;8.338;2022-12-10T07:51:33;99332.69;;;3.22;100.00
10881;BME280;5493;48.884;8.338;2022-12-10T07:54:00;99330.88;;;3.29;100.00
10881;BME280;5493;48.884;8.338;2022-12-10T07:56:26;99327.34;;;3.22;100.00
10881;BME280;5493;48.884;8.338;2022-12-10T07:58:53;99327.41;;;3.29;100.00
10881;BME280;5493;48.884;8.338;2022-12-10T08:01:23;99331.06;;;2.93;100.00
10881;BME280;5493;48.884;8.338;2022-12-10T08:03:50;99334.19;;;3.31;100.00
10881;BME280;5493;48.884;8.338;2022-12-10T08:06:18;99338.06;;;3.01;100.00
10881;BME280;5493;48.884;8.338;2022-12-10T08:08:45;99337.31;;;3.07;100.00
10881;BME280;5493;48.884;8.338;2022-12-10T08:11:14;99337.38;;;3.20;100.00
10881;BME280;5493;48.884;8.338;2022-12-10T08:13:41;99330.72;;;3.03;100.00
10881;BME280;5493;48.884;8.338;2022-12-10T08:16:10;99337.53;;;3.12;100.00
10881;BME280;5493;48.884;8.338;2022-12-10T08:18:39;99336.56;;;3.20;100.00
10881;BME280;5493;48.884;8.338;2022-12-10T08:21:07;99345.63;;;3.25;100.00
10881;BME280;5493;48.884;8.338;2022-12-10T08:23:35;99342.22;;;3.04;100.00
10881;BME280;5493;48.884;8.338;2022-12-10T08:26:03;99339.22;;;3.20;100.00
10881;BME280;5493;48.884;8.338;2022-12-10T08:28:30;99346.28;;;3.34;100.00
10881;BME280;5493;48.884;8.338;2022-12-10T08:30:56;99354.97;;;2.87;100.00
10881;BME280;5493;48.884;8.338;2022-12-10T08:33:23;99365.81;;;3.13;100.00
10881;BME280;5493;48.884;8.338;2022-12-10T08:35:51;99369.50;;;3.12;100.00
10881;BME280;5493;48.884;8.338;2022-12-10T08:38:18;99366.53;;;3.28;100.00
10881;BME280;5493;48.884;8.338;2022-12-10T08:40:44;99379.66;;;3.30;100.00
10881;BME280;5493;48.884;8.338;2022-12-10T08:43:11;99378.66;;;3.03;100.00
10881;BME280;5493;48.884;8.338;2022-12-10T08:45:37;99373.56;;;3.36;100.00
10881;BME280;5493;48.884;8.338;2022-12-10T08:48:04;99378.38;;;3.26;100.00
10881;BME280;5493;48.884;8.338;2022-12-10T08:50:30;99368.06;;;3.10;100.00
10881;BME280;5493;48.884;8.338;2022-12-10T08:52:59;99371.75;;;3.15;100.00
10881;BME280;5493;48.884;8.338;2022-12-10T08:55:26;99367.00;;;3.38;100.00
10881;BME280;5493;48.884;8.338;2022-12-10T08:57:52;99370.59;;;3.24;100.00
10881;BME280;5493;48.884;8.338;2022-12-10T09:00:19;99373.81;;;3.13;100.00
10881;BME280;5493;48.884;8.338;2022-12-10T09:02:45;99365.75;;;3.34;100.00
10881;BME280;5493;48.884;8.338;2022-12-10T09:05:12;99373.47;;;3.57;100.00
10881;BME280;5493;48.884;8.338;2022-12-10T09:07:39;99374.72;;;3.27;100.00
10881;BME280;5493;48.884;8.338;2022-12-10T09:10:09;99368.59;;;3.33;100.00
10881;BME280;5493;48.884;8.338;2022-12-10T09:12:36;99375.72;;;3.54;100.00
10881;BME280;5493;48.884;8.338;2022-12-10T09:15:03;99380.91;;;3.34;100.00
10881;BME280;5493;48.884;8.338;2022-12-10T09:17:30;99384.03;;;3.44;100.00
10881;BME280;5493;48.884;8.338;2022-12-10T09:19:56;99392.38;;;3.34;100.00
10881;BME280;5493;48.884;8.338;2022-12-10T09:22:23;99404.34;;;3.45;100.00
10881;BME280;5493;48.884;8.338;2022-12-10T09:24:49;99412.72;;;3.42;100.00
10881;BME280;5493;48.884;8.338;2022-12-10T09:27:17;99407.97;;;3.37;100.00
10881;BME280;5493;48.884;8.338;2022-12-10T09:29:45;99414.28;;;3.30;100.00
10881;BME280;5493;48.884;8.338;2022-12-10T09:32:12;99411.66;;;3.36;100.00
10881;BME280;5493;48.884;8.338;2022-12-10T09:34:38;99415.94;;;3.31;100.00
10881;BME280;5493;48.884;8.338;2022-12-10T09:37:05;99414.97;;;3.38;100.00
10881;BME280;5493;48.884;8.338;2022-12-10T09:39:31;99415.88;;;3.24;100.00
10881;BME280;5493;48.884;8.338;2022-12-10T09:42:14;99408.38;;;3.34;100.00
10881;BME280;5493;48.884;8.338;2022-12-10T09:44:53;99424.06;;;3.23;100.00
10881;BME280;5493;48.884;8.338;2022-12-10T09:47:24;99416.25;;;3.49;100.00
10881;BME280;5493;48.884;8.338;2022-12-10T09:50:03;99416.50;;;3.54;100.00
10881;BME280;5493;48.884;8.338;2022-12-10T09:52:38;99406.28;;;3.58;100.00
10881;BME280;5493;48.884;8.338;2022-12-10T09:55:12;99412.06;;;3.68;100.00
10881;BME280;5493;48.884;8.338;2022-12-10T09:57:41;99418.78;;;3.57;100.00
10881;BME280;5493;48.884;8.338;2022-12-10T10:00:19;99410.03;;;3.35;100.00
10881;BME280;5493;48.884;8.338;2022-12-10T10:02:48;99419.50;;;3.44;100.00
10881;BME280;5493;48.884;8.338;2022-12-10T10:05:20;99412.72;;;3.42;100.00
10881;BME280;5493;48.884;8.338;2022-12-10T10:07:49;99407.72;;;3.60;100.00
10881;BME280;5493;48.884;8.338;2022-12-10T10:10:22;99410.84;;;3.70;100.00
10881;BME280;5493;48.884;8.338;2022-12-10T10:12:50;99412.88;;;3.62;100.00
10881;BME280;5493;48.884;8.338;2022-12-10T10:15:24;99414.34;;;3.71;100.00
10881;BME280;5493;48.884;8.338;2022-12-10T10:17:53;99413.63;;;3.90;100.00
10881;BME280;5493;48.884;8.338;2022-12-10T10:20:20;99416.44;;;3.82;100.00
10881;BME280;5493;48.884;8.338;2022-12-10T10:22:47;99415.34;;;3.70;100.00
10881;BME280;5493;48.884;8.338;2022-12-10T10:25:15;99420.41;;;3.58;100.00
10881;BME280;5493;48.884;8.338;2022-12-10T10:27:44;99411.31;;;3.80;100.00
10881;BME280;5493;48.884;8.338;2022-12-10T10:30:15;99411.94;;;3.82;100.00
10881;BME280;5493;48.884;8.338;2022-12-10T10:32:49;99418.13;;;3.89;100.00
10881;BME280;5493;48.884;8.338;2022-12-10T10:35:26;99415.22;;;3.43;100.00
10881;BME280;5493;48.884;8.338;2022-12-10T10:37:59;99416.03;;;3.78;100.00
10881;BME280;5493;48.884;8.338;2022-12-10T10:40:29;99410.94;;;3.83;100.00
10881;BME280;5493;48.884;8.338;2022-12-10T10:42:57;99417.16;;;3.97;100.00
10881;BME280;5493;48.884;8.338;2022-12-10T10:45:39;99417.97;;;3.97;100.00
10881;BME280;5493;48.884;8.338;2022-12-10T10:48:12;99419.19;;;4.02;100.00
10881;BME280;5493;48.884;8.338;2022-12-10T10:50:41;99416.78;;;4.13;100.00
10881;BME280;5493;48.884;8.338;2022-12-10T10:53:25;99415.03;;;4.33;100.00
10881;BME280;5493;48.884;8.338;2022-12-10T10:55:54;99428.50;;;4.12;100.00
10881;BME280;5493;48.884;8.338;2022-12-10T10:58:23;99428.94;;;4.16;100.00
10881;BME280;5493;48.884;8.338;2022-12-10T11:00:58;99422.47;;;3.97;100.00
10881;BME280;5493;48.884;8.338;2022-12-10T11:03:28;99427.53;;;3.85;100.00
10881;BME280;5493;48.884;8.338;2022-12-10T11:05:57;99437.53;;;4.18;100.00
10881;BME280;5493;48.884;8.338;2022-12-10T11:08:25;99435.03;;;4.10;100.00
10881;BME280;5493;48.884;8.338;2022-12-10T11:10:57;99435.00;;;4.03;100.00
10881;BME280;5493;48.884;8.338;2022-12-10T11:13:28;99436.91;;;3.75;100.00
10881;BME280;5493;48.884;8.338;2022-12-10T11:15:58;99440.75;;;4.00;100.00
10881;BME280;5493;48.884;8.338;2022-12-10T11:18:32;99432.59;;;4.08;100.00
10881;BME280;5493;48.884;8.338;2022-12-10T11:21:01;99424.91;;;3.92;100.00
10881;BME280;5493;48.884;8.338;2022-12-10T11:23:30;99434.00;;;3.70;100.00
10881;BME280;5493;48.884;8.338;2022-12-10T11:26:02;99437.19;;;3.86;100.00
10881;BME280;5493;48.884;8.338;2022-12-10T11:28:42;99432.38;;;4.10;100.00
10881;BME280;5493;48.884;8.338;2022-12-10T11:31:21;99436.13;;;3.81;100.00
10881;BME280;5493;48.884;8.338;2022-12-10T11:33:55;99438.94;;;3.73;100.00
10881;BME280;5493;48.884;8.338;2022-12-10T11:36:33;99426.75;;;3.91;100.00
10881;BME280;5493;48.884;8.338;2022-12-10T11:39:10;99419.16;;;3.95;100.00
10881;BME280;5493;48.884;8.338;2022-12-10T11:41:46;99422.91;;;4.01;100.00
10881;BME280;5493;48.884;8.338;2022-12-10T11:44:22;99421.69;;;4.10;100.00
10881;BME280;5493;48.884;8.338;2022-12-10T11:49:53;99423.34;;;4.11;100.00
10881;BME280;5493;48.884;8.338;2022-12-10T11:52:38;99427.25;;;4.08;100.00
10881;BME280;5493;48.884;8.338;2022-12-10T11:55:17;99433.03;;;4.18;100.00
10881;BME280;5493;48.884;8.338;2022-12-10T11:57:52;99432.31;;;4.44;100.00
10881;BME280;5493;48.884;8.338;2022-12-10T12:00:32;99430.38;;;4.25;100.00
10881;BME280;5493;48.884;8.338;2022-12-10T12:03:28;99430.72;;;4.69;100.00
10881;BME280;5493;48.884;8.338;2022-12-10T12:06:09;99434.69;;;4.26;100.00
10881;BME280;5493;48.884;8.338;2022-12-10T12:08:51;99435.66;;;4.12;100.00
10881;BME280;5493;48.884;8.338;2022-12-10T12:11:31;99434.13;;;4.37;100.00
10881;BME280;5493;48.884;8.338;2022-12-10T12:14:07;99437.56;;;4.24;100.00
10881;BME280;5493;48.884;8.338;2022-12-10T12:16:37;99440.47;;;4.29;100.00
10881;BME280;5493;48.884;8.338;2022-12-10T12:19:12;99441.34;;;4.02;100.00
10881;BME280;5493;48.884;8.338;2022-12-10T12:21:42;99445.50;;;4.05;100.00
10881;BME280;5493;48.884;8.338;2022-12-10T12:24:16;99452.50;;;4.12;100.00
10881;BME280;5493;48.884;8.338;2022-12-10T12:26:49;99446.41;;;4.31;100.00
10881;BME280;5493;48.884;8.338;2022-12-10T12:29:20;99447.63;;;4.22;100.00
10881;BME280;5493;48.884;8.338;2022-12-10T12:31:54;99451.56;;;4.39;100.00
10881;BME280;5493;48.884;8.338;2022-12-10T12:34:25;99462.00;;;4.28;100.00
10881;BME280;5493;48.884;8.338;2022-12-10T12:36:54;99453.66;;;4.51;100.00
10881;BME280;5493;48.884;8.338;2022-12-10T12:39:27;99459.38;;;4.41;100.00
10881;BME280;5493;48.884;8.338;2022-12-10T12:41:58;99464.78;;;4.13;100.00
10881;BME280;5493;48.884;8.338;2022-12-10T12:44:32;99465.00;;;4.12;100.00
10881;BME280;5493;48.884;8.338;2022-12-10T12:47:08;99462.41;;;4.25;100.00
10881;BME280;5493;48.884;8.338;2022-12-10T12:49:39;99461.81;;;4.36;100.00
10881;BME280;5493;48.884;8.338;2022-12-10T12:52:20;99468.41;;;4.40;100.00
10881;BME280;5493;48.884;8.338;2022-12-10T12:54:53;99460.88;;;4.63;100.00
10881;BME280;5493;48.884;8.338;2022-12-10T12:57:30;99462.09;;;4.54;100.00
10881;BME280;5493;48.884;8.338;2022-12-10T13:00:03;99467.16;;;4.36;100.00
10881;BME280;5493;48.884;8.338;2022-12-10T13:02:48;99472.50;;;4.36;100.00
10881;BME280;5493;48.884;8.338;2022-12-10T13:05:23;99481.03;;;4.18;100.00
10881;BME280;5493;48.884;8.338;2022-12-10T13:08:25;99484.59;;;4.32;100.00
10881;BME280;5493;48.884;8.338;2022-12-10T13:10:57;99481.66;;;4.20;100.00
10881;BME280;5493;48.884;8.338;2022-12-10T13:13:28;99482.78;;;4.39;100.00
10881;BME280;5493;48.884;8.338;2022-12-10T13:15:55;99486.69;;;4.43;100.00
10881;BME280;5493;48.884;8.338;2022-12-10T13:18:35;99489.66;;;4.20;100.00
10881;BME280;5493;48.884;8.338;2022-12-10T13:21:30;99483.84;;;4.51;100.00
10881;BME280;5493;48.884;8.338;2022-12-10T13:24:12;99486.72;;;4.56;100.00
10881;BME280;5493;48.884;8.338;2022-12-10T13:29:26;99492.38;;;4.81;100.00
10881;BME280;5493;48.884;8.338;2022-12-10T13:31:57;99498.06;;;4.71;100.00
10881;BME280;5493;48.884;8.338;2022-12-10T13:34:36;99503.06;;;5.01;100.00